Northeast Philadelphia Airport
KPNE : rendu visible

Aérodrome :











RETROUVEZ-NOUS SUR...

 
LOGIN :

S'inscrire | Disclaimer

   EN    FR    IT 

 









Légende :    VFR   VFR Marginal   IFR   IFR Intensif   IFR Très Intensif
Visi : 
Plafond : 
>= 8 km
>= 3000ft
5 à 8 km
1000 à 3000 ft
1500m à 5 km
500 à 1000 ft
800 à 1500m
200 à 500 ft
< 800m
< 200 ft
Symboles :   Orages  Brouillard  Fortes neiges  Fortes précipitations  Vent > 20 kt







- Altitude de l'aérodrome : 120 ft


KPNE - Northeast Philadelphia

DERNIER METAR :
  • 210554Z 00000KT 10SM SCT095 13/09 A2985 RMK AO2 SLP109 T01330094 10189 20128 50006

METARs EXPIRÉS :
  • 210454Z 00000KT 10SM CLR 14/09 A2986 RMK AO2 SLP112 T01390094 402330139
  • 210354Z 00000KT 10SM CLR 14/09 A2986 RMK AO2 SLP110 T01440094

TAF KPNE
Valide du 21 à 06h jusqu'au 22 à 06h UTC


210520Z 2106/2206 VRB03KT P6SM SCT070 OVC100
FM211200 19004KT P6SM BKN100
FM211600 22005KT P6SM SCT150
FM212200 VRB04KT P6SM BKN100
FIR KZDC / Amérique du Nord



MET'MAP, la Météo Aéronautique d'un coup d'oeil ! - Copyright ORBIFLY Décembre 2007 - Disclaimer

ORBIFLY MET'MAP TEAM :

Programmation & Développement : Alexandra Zaïnal
Conception & Développement : Baudouin d'Aumeries
Co-Programmation & Développement : Marc-Olivier Méhu
Soutien technique & logistique : Manuel Goepfert

Contact : metmap@orbifly.com




SOURCES & CREDITS :

   NOAA       Earth
Advisory